STW142 UUEE-LTAI
Flight info
| Callsign | STW142 |
|---|---|
| Flight time | N/A |
| Altitude | 40000 |
| Route | LIDRI3E LIDRI T781 REPNU N858 VEPIS T526 RUHAL M863 MNS T52 RAVOK L856 TOSPO/N0464F400 DCT PODAN DCT KEKED/N0458F390 DCT BADOR DCT TIMUR L606 ADORU UN739 EKI UL606 CRD UL854 KOZLU |
| Aircraft | A332/H-SDE3GHIJ2J3J5M1RVWXY/LB2D1 |
Departure
| Time | 2026-05-07 16:41 |
|---|---|
| Airport | Sheremetyevo International Airport (UUEE) |
Arrival
| Time | N/A |
|---|---|
| Airport | Antalya International Airport (LTAI) |
| Time | Latitude | Longitude | Altitude | Speed | Heading |
|---|---|---|---|---|---|
| 2026-05-07 15:45 | 55.97741 | 37.41289 | 649 ft | 0 kts | 301° |
| 2026-05-07 16:31 | 55.97735 | 37.41311 | 646 ft | 4 kts | 288° |
| 2026-05-07 16:31 | 55.97732 | 37.41355 | 645 ft | 4 kts | 249° |
| 2026-05-07 16:31 | 55.97746 | 37.41394 | 644 ft | 4 kts | 218° |
| 2026-05-07 16:31 | 55.97769 | 37.41418 | 644 ft | 4 kts | 199° |
| 2026-05-07 16:32 | 55.97795 | 37.41427 | 644 ft | 4 kts | 172° |
| 2026-05-07 16:32 | 55.97800 | 37.41426 | 649 ft | 1 kts | 165° |
| 2026-05-07 16:35 | 55.97785 | 37.41433 | 646 ft | 5 kts | 165° |
| 2026-05-07 16:36 | 55.97744 | 37.41452 | 645 ft | 7 kts | 165° |
| 2026-05-07 16:36 | 55.97696 | 37.41477 | 644 ft | 7 kts | 159° |
| 2026-05-07 16:36 | 55.97679 | 37.41538 | 646 ft | 4 kts | 91° |
| 2026-05-07 16:36 | 55.97668 | 37.41584 | 646 ft | 4 kts | 134° |
| 2026-05-07 16:37 | 55.97618 | 37.41637 | 643 ft | 11 kts | 124° |
| 2026-05-07 16:37 | 55.97622 | 37.41767 | 649 ft | 11 kts | 75° |
| 2026-05-07 16:37 | 55.97644 | 37.41913 | 647 ft | 15 kts | 75° |
| 2026-05-07 16:37 | 55.97678 | 37.42145 | 645 ft | 23 kts | 75° |
| 2026-05-07 16:38 | 55.97722 | 37.42434 | 648 ft | 24 kts | 75° |
| 2026-05-07 16:38 | 55.97765 | 37.42722 | 648 ft | 24 kts | 75° |
| 2026-05-07 16:38 | 55.97808 | 37.43007 | 646 ft | 24 kts | 75° |
| 2026-05-07 16:38 | 55.97850 | 37.43287 | 646 ft | 23 kts | 75° |
| 2026-05-07 16:39 | 55.97892 | 37.43565 | 650 ft | 23 kts | 75° |
| 2026-05-07 16:39 | 55.97933 | 37.43840 | 647 ft | 21 kts | 76° |
| 2026-05-07 16:39 | 55.97948 | 37.43990 | 649 ft | 10 kts | 99° |
| 2026-05-07 16:39 | 55.97903 | 37.44046 | 645 ft | 8 kts | 165° |
| 2026-05-07 16:40 | 55.97849 | 37.44071 | 648 ft | 8 kts | 165° |
| 2026-05-07 16:40 | 55.97797 | 37.44058 | 645 ft | 8 kts | 213° |
| 2026-05-07 16:40 | 55.97774 | 37.43979 | 644 ft | 7 kts | 253° |
| 2026-05-07 16:40 | 55.97746 | 37.43798 | 646 ft | 37 kts | 255° |
| 2026-05-07 16:41 | 55.97630 | 37.43001 | 648 ft | 94 kts | 255° |
| 2026-05-07 16:41 | 55.97417 | 37.41586 | 643 ft | 141 kts | 255° |
| 2026-05-07 16:41 | 55.97132 | 37.39681 | 810 ft | 167 kts | 257° |
| 2026-05-07 16:41 | 55.96817 | 37.37693 | 1378 ft | 166 kts | 255° |
| 2026-05-07 16:42 | 55.96511 | 37.35796 | 2148 ft | 152 kts | 253° |
| 2026-05-07 16:42 | 55.96222 | 37.33964 | 2672 ft | 155 kts | 255° |
| 2026-05-07 16:42 | 55.95931 | 37.32104 | 3211 ft | 156 kts | 255° |
| 2026-05-07 16:42 | 55.95737 | 37.30859 | 3562 ft | 158 kts | 255° |
| 2026-05-07 16:43 | 55.95434 | 37.28922 | 3944 ft | 171 kts | 255° |
| 2026-05-07 16:43 | 55.95093 | 37.26737 | 4180 ft | 196 kts | 254° |
| 2026-05-07 16:43 | 55.94702 | 37.24245 | 4453 ft | 221 kts | 254° |
| 2026-05-07 16:43 | 55.94268 | 37.21477 | 4865 ft | 240 kts | 254° |
| 2026-05-07 16:44 | 55.93812 | 37.18579 | 5595 ft | 245 kts | 254° |
| 2026-05-07 16:44 | 55.93351 | 37.15648 | 6486 ft | 245 kts | 254° |
| 2026-05-07 16:44 | 55.92890 | 37.12721 | 7349 ft | 246 kts | 253° |
| 2026-05-07 16:44 | 55.92422 | 37.09758 | 8160 ft | 250 kts | 253° |
| 2026-05-07 16:45 | 55.91946 | 37.06748 | 8967 ft | 254 kts | 253° |
| 2026-05-07 16:45 | 55.91464 | 37.03706 | 9797 ft | 257 kts | 253° |
| 2026-05-07 16:45 | 55.91074 | 37.00578 | 10562 ft | 261 kts | 262° |
| 2026-05-07 16:45 | 55.90997 | 36.97333 | 11340 ft | 264 kts | 267° |
| 2026-05-07 16:46 | 55.91024 | 36.94029 | 12100 ft | 268 kts | 268° |
| 2026-05-07 16:46 | 55.91065 | 36.90701 | 12943 ft | 268 kts | 268° |
| 2026-05-07 16:46 | 55.91105 | 36.87371 | 13716 ft | 271 kts | 267° |
| 2026-05-07 16:46 | 55.91140 | 36.83987 | 14351 ft | 275 kts | 267° |
| 2026-05-07 16:47 | 55.91172 | 36.80561 | 15002 ft | 278 kts | 267° |
| 2026-05-07 16:47 | 55.91186 | 36.77097 | 15661 ft | 280 kts | 264° |
| 2026-05-07 16:47 | 55.90927 | 36.73695 | 16201 ft | 285 kts | 256° |
| 2026-05-07 16:47 | 55.90464 | 36.70165 | 16485 ft | 300 kts | 254° |
| 2026-05-07 16:48 | 55.89936 | 36.66466 | 16744 ft | 315 kts | 254° |
| 2026-05-07 16:48 | 55.89380 | 36.62589 | 16993 ft | 330 kts | 254° |
| 2026-05-07 16:48 | 55.88807 | 36.58560 | 17316 ft | 341 kts | 254° |
| 2026-05-07 16:48 | 55.88220 | 36.54419 | 17816 ft | 346 kts | 254° |
| 2026-05-07 16:49 | 55.87628 | 36.50243 | 18352 ft | 350 kts | 254° |
| 2026-05-07 16:49 | 55.87036 | 36.46023 | 18830 ft | 353 kts | 255° |
| 2026-05-07 16:49 | 55.86490 | 36.41732 | 19305 ft | 357 kts | 256° |
| 2026-05-07 16:49 | 55.85959 | 36.37402 | 19788 ft | 360 kts | 257° |
| 2026-05-07 16:50 | 55.85425 | 36.33032 | 20276 ft | 362 kts | 257° |
| 2026-05-07 16:50 | 55.84885 | 36.28633 | 20714 ft | 366 kts | 257° |
| 2026-05-07 16:50 | 55.84336 | 36.24173 | 21123 ft | 371 kts | 257° |
| 2026-05-07 16:50 | 55.83781 | 36.19683 | 21604 ft | 373 kts | 257° |
| 2026-05-07 16:51 | 55.83220 | 36.15160 | 22088 ft | 376 kts | 257° |
| 2026-05-07 16:51 | 55.82653 | 36.10610 | 22541 ft | 378 kts | 258° |
| 2026-05-07 16:51 | 55.82081 | 36.06033 | 23035 ft | 380 kts | 258° |
| 2026-05-07 16:51 | 55.81505 | 36.01443 | 23536 ft | 382 kts | 258° |
| 2026-05-07 16:52 | 55.80918 | 35.96813 | 23893 ft | 384 kts | 258° |
| 2026-05-07 16:52 | 55.80326 | 35.92169 | 24257 ft | 387 kts | 258° |
| 2026-05-07 16:52 | 55.79727 | 35.87490 | 24626 ft | 389 kts | 258° |
| 2026-05-07 16:52 | 55.79124 | 35.82792 | 25002 ft | 391 kts | 258° |
| 2026-05-07 16:53 | 55.78516 | 35.78073 | 25369 ft | 393 kts | 258° |
| 2026-05-07 16:53 | 55.77902 | 35.73327 | 25734 ft | 395 kts | 258° |
| 2026-05-07 16:53 | 55.77284 | 35.68558 | 26095 ft | 397 kts | 258° |
| 2026-05-07 16:53 | 55.76661 | 35.63768 | 26447 ft | 399 kts | 257° |
| 2026-05-07 16:54 | 55.76033 | 35.58958 | 26758 ft | 402 kts | 257° |
| 2026-05-07 16:54 | 55.75482 | 35.54126 | 26994 ft | 406 kts | 262° |
| 2026-05-07 16:54 | 55.75142 | 35.49144 | 27334 ft | 408 kts | 264° |
| 2026-05-07 16:54 | 55.74888 | 35.44120 | 27699 ft | 409 kts | 265° |
| 2026-05-07 16:55 | 55.74676 | 35.39062 | 28048 ft | 411 kts | 266° |
| 2026-05-07 16:55 | 55.74478 | 35.33989 | 28383 ft | 413 kts | 266° |
| 2026-05-07 16:55 | 55.74276 | 35.28892 | 28718 ft | 415 kts | 266° |
| 2026-05-07 16:55 | 55.74065 | 35.23771 | 29038 ft | 417 kts | 265° |
| 2026-05-07 16:56 | 55.73844 | 35.18636 | 29359 ft | 419 kts | 265° |
| 2026-05-07 16:56 | 55.73613 | 35.13467 | 29674 ft | 421 kts | 265° |
| 2026-05-07 16:56 | 55.73137 | 35.03074 | 30241 ft | 424 kts | 265° |
| 2026-05-07 16:57 | 55.72897 | 34.97854 | 30522 ft | 425 kts | 265° |
| 2026-05-07 16:57 | 55.72654 | 34.92609 | 30788 ft | 427 kts | 265° |
| 2026-05-07 16:57 | 55.72410 | 34.87353 | 31066 ft | 428 kts | 265° |
| 2026-05-07 16:57 | 55.72164 | 34.82092 | 31333 ft | 429 kts | 265° |
| 2026-05-07 16:58 | 55.71914 | 34.76816 | 31667 ft | 429 kts | 265° |
| 2026-05-07 16:58 | 55.71663 | 34.71554 | 32016 ft | 427 kts | 265° |
| 2026-05-07 16:58 | 55.71410 | 34.66306 | 32393 ft | 426 kts | 265° |
| 2026-05-07 16:58 | 55.71060 | 34.61112 | 32784 ft | 424 kts | 261° |
| 2026-05-07 16:59 | 55.70376 | 34.56034 | 33181 ft | 423 kts | 255° |
| 2026-05-07 16:59 | 55.69476 | 34.51075 | 33569 ft | 422 kts | 252° |
| 2026-05-07 16:59 | 55.68514 | 34.46191 | 34009 ft | 418 kts | 252° |
| 2026-05-07 16:59 | 55.67520 | 34.41358 | 34307 ft | 417 kts | 251° |
| 2026-05-07 17:00 | 55.66523 | 34.36597 | 34507 ft | 418 kts | 251° |
| 2026-05-07 17:00 | 55.65507 | 34.31772 | 34722 ft | 418 kts | 251° |
| 2026-05-07 17:00 | 55.64491 | 34.26947 | 34949 ft | 418 kts | 251° |
| 2026-05-07 17:00 | 55.63476 | 34.22113 | 35175 ft | 419 kts | 251° |
| 2026-05-07 17:01 | 55.62463 | 34.17279 | 35397 ft | 419 kts | 251° |
| 2026-05-07 17:01 | 55.61450 | 34.12448 | 35612 ft | 419 kts | 251° |
| 2026-05-07 17:01 | 55.60434 | 34.07601 | 35781 ft | 420 kts | 251° |
| 2026-05-07 17:01 | 55.59416 | 34.02751 | 35972 ft | 421 kts | 251° |
| 2026-05-07 17:02 | 55.58394 | 33.97899 | 36173 ft | 421 kts | 251° |
| 2026-05-07 17:02 | 55.57371 | 33.93050 | 36406 ft | 421 kts | 251° |
| 2026-05-07 17:02 | 55.56342 | 33.88191 | 36605 ft | 421 kts | 250° |
| 2026-05-07 17:02 | 55.55314 | 33.83346 | 36815 ft | 421 kts | 250° |